Time;durP1;ratioP1;P1;durP2;ratioP2;P2;SDS_P1;SDS_P2;PMS_P1;PMS_P2;Temp;Humidity;BMP_temperature;BMP_pressure;BME280_temperature;BME280_humidity;BME280_pressure;Samples;Min_cycle;Max_cycle;Signal;HPM_P1;HPM_P2
2023/10/02 00:01:06;;;;;;;11.70;3.90;;;;;;;21.03;47.25;100351.36;108040;1254;60432;-65
2023/10/02 00:03:33;;;;;;;12.00;3.80;;;;;;;21.02;47.22;100349.14;108003;1254;72128;-65
2023/10/02 00:06:01;;;;;;;12.50;3.80;;;;;;;20.91;47.31;100351.70;108143;1254;70411;-66
2023/10/02 00:08:40;;;;;;;13.40;3.90;;;;;;;20.90;47.34;100349.45;108040;1254;72634;-66
2023/10/02 00:11:35;;;;;;;17.30;4.10;;;;;;;20.98;47.21;100349.75;108158;1254;60407;-64
2023/10/02 00:14:18;;;;;;;21.90;4.30;;;;;;;21.03;47.12;100349.00;108028;1254;59819;-66
2023/10/02 00:17:00;;;;;;;8.50;4.00;;;;;;;21.10;46.95;100348.84;108022;1257;73128;-65
2023/10/02 00:19:39;;;;;;;15.50;4.30;;;;;;;20.92;47.21;100349.00;108034;1254;70403;-66
2023/10/02 00:22:08;;;;;;;12.60;4.10;;;;;;;20.80;47.46;100349.38;108016;1256;72448;-64
2023/10/02 00:24:37;;;;;;;10.40;3.80;;;;;;;20.69;47.65;100350.52;108003;1254;62055;-67
2023/10/02 00:27:07;;;;;;;13.40;3.90;;;;;;;20.69;47.55;100354.09;107992;1254;60066;-66
2023/10/02 00:29:34;;;;;;;15.40;4.30;;;;;;;20.64;47.64;100353.78;107925;1254;72527;-65
2023/10/02 00:32:10;;;;;;;18.10;5.30;;;;;;;20.22;48.51;100358.80;108058;1254;70255;-65
2023/10/02 00:34:39;;;;;;;17.30;6.20;;;;;;;20.17;48.68;100360.66;108008;1254;72721;-66
2023/10/02 00:37:12;;;;;;;20.90;6.30;;;;;;;20.20;48.65;100359.84;108062;1254;61729;-66
2023/10/02 00:39:40;;;;;;;16.60;6.50;;;;;;;20.17;48.60;100359.40;107938;1254;59512;-66
2023/10/02 00:42:24;;;;;;;23.20;7.20;;;;;;;19.99;49.07;100360.55;108155;1254;71773;-66
2023/10/02 00:44:56;;;;;;;12.40;5.50;;;;;;;19.98;49.13;100362.92;108064;1254;70020;-66
2023/10/02 00:47:48;;;;;;;29.30;7.10;;;;;;;19.96;49.26;100362.19;108040;1254;72529;-66
2023/10/02 00:50:18;;;;;;;19.50;6.90;;;;;;;19.92;49.40;100359.23;108079;1254;61178;-65
2023/10/02 00:52:58;;;;;;;15.40;4.70;;;;;;;19.84;49.69;100360.48;108042;1254;60146;-65
2023/10/02 00:55:30;;;;;;;;;;;;;;;19.79;49.92;100361.04;107755;1254;71835;-65
2023/10/02 00:58:00;;;;;;;15.20;4.40;;;;;;;19.73;50.14;100363.81;108261;1253;68721;-65
2023/10/02 01:00:35;;;;;;;13.60;4.80;;;;;;;19.86;49.90;100361.27;108033;1254;72698;-66
2023/10/02 01:03:14;;;;;;;18.30;5.40;;;;;;;19.74;50.19;100362.99;108269;1254;62093;-66
2023/10/02 01:05:47;;;;;;;19.50;5.10;;;;;;;19.56;50.54;100362.18;108247;1254;59481;-66
2023/10/02 01:08:25;;;;;;;16.00;4.90;;;;;;;19.60;50.52;100366.84;108255;1252;72297;-66
2023/10/02 01:10:57;;;;;;;15.60;4.80;;;;;;;19.58;50.53;100369.16;108202;1253;70575;-66
2023/10/02 01:13:35;;;;;;;13.90;5.20;;;;;;;19.38;50.94;100374.42;108236;1253;74617;-65
2023/10/02 01:16:04;;;;;;;14.80;4.60;;;;;;;19.33;51.02;100369.98;108164;1254;61652;-66
2023/10/02 01:18:33;;;;;;;13.80;5.00;;;;;;;19.59;50.38;100371.33;108322;1253;59957;-66
2023/10/02 01:21:01;;;;;;;14.80;4.50;;;;;;;19.73;50.24;100376.30;108146;1253;73150;-66
2023/10/02 01:23:31;;;;;;;13.20;4.90;;;;;;;19.66;50.39;100376.77;108284;1253;70363;-66
2023/10/02 01:26:00;;;;;;;15.50;4.20;;;;;;;19.79;50.31;100381.19;108209;1253;72597;-66
2023/10/02 01:28:49;;;;;;;14.30;4.40;;;;;;;19.89;49.86;100380.08;108125;1254;61784;-65
2023/10/02 01:31:32;;;;;;;15.70;5.30;;;;;;;19.69;50.20;100377.77;108238;1254;59448;-66
2023/10/02 01:34:00;;;;;;;20.80;5.10;;;;;;;19.55;50.65;100375.95;108160;1252;73090;-67
2023/10/02 01:36:31;;;;;;;15.10;5.10;;;;;;;19.53;50.66;100381.95;108184;1253;70171;-66
2023/10/02 01:38:59;;;;;;;20.70;4.40;;;;;;;19.55;50.55;100384.48;108123;1256;72440;-66
2023/10/02 01:41:27;;;;;;;13.10;4.10;;;;;;;19.63;50.44;100386.73;108204;1254;62168;-66
2023/10/02 01:43:56;;;;;;;20.10;5.10;;;;;;;19.66;50.45;100389.93;108309;1252;60199;-66
2023/10/02 01:46:24;;;;;;;15.30;4.80;;;;;;;19.63;50.27;100387.86;108292;1253;73103;-65
2023/10/02 01:48:51;;;;;;;13.10;4.90;;;;;;;19.76;50.12;100385.48;108203;1254;68747;-66
2023/10/02 01:51:26;;;;;;;14.70;4.60;;;;;;;19.79;49.71;100385.09;108246;1254;72003;-66
2023/10/02 01:53:59;;;;;;;11.80;4.30;;;;;;;19.69;50.00;100386.68;108180;1253;60752;-66
2023/10/02 01:56:31;;;;;;;13.20;4.30;;;;;;;19.67;50.11;100383.60;108097;1253;59078;-66
2023/10/02 01:59:09;;;;;;;15.40;4.50;;;;;;;19.72;50.02;100384.91;108128;1254;73041;-66
2023/10/02 02:01:56;;;;;;;16.30;4.70;;;;;;;19.60;50.31;100386.46;108152;1253;70285;-66
2023/10/02 02:04:29;;;;;;;17.30;5.60;;;;;;;19.45;50.66;100387.27;108174;1254;71393;-66
2023/10/02 02:06:57;;;;;;;17.30;5.20;;;;;;;19.47;50.54;100386.05;108231;1253;60424;-66
2023/10/02 02:09:33;;;;;;;18.10;5.70;;;;;;;19.43;50.61;100381.56;108166;1252;60087;-67
2023/10/02 02:12:05;;;;;;;15.50;4.80;;;;;;;19.37;50.61;100385.52;108248;1253;72836;-66
2023/10/02 02:14:52;;;;;;;16.00;5.60;;;;;;;19.26;50.92;100392.16;108242;1253;69348;-66
2023/10/02 02:17:21;;;;;;;27.30;5.30;;;;;;;19.27;50.83;100392.11;108237;1254;72629;-66
2023/10/02 02:19:54;;;;;;;17.30;5.20;;;;;;;19.27;50.89;100396.90;108259;1254;60839;-66
2023/10/02 02:22:25;;;;;;;14.10;5.20;;;;;;;19.22;50.94;100394.60;108253;1253;58981;-66
2023/10/02 02:24:54;;;;;;;16.80;5.00;;;;;;;19.17;51.03;100395.65;108243;1253;72947;-65
2023/10/02 02:27:21;;;;;;;16.10;5.00;;;;;;;19.16;51.09;100394.69;108145;1254;68930;-65
2023/10/02 02:29:49;;;;;;;17.00;4.40;;;;;;;19.10;51.30;100396.48;108197;1254;72724;-65
2023/10/02 02:32:19;;;;;;;22.30;5.60;;;;;;;19.13;51.22;100398.25;108280;1251;61705;-66
2023/10/02 02:35:00;;;;;;;21.60;5.40;;;;;;;19.16;51.31;100397.34;108227;1252;62101;-64
2023/10/02 02:37:32;;;;;;;17.40;5.30;;;;;;;19.17;51.42;100399.27;108168;1254;73088;-66
2023/10/02 02:40:22;;;;;;;16.10;4.80;;;;;;;19.08;51.62;100400.55;108222;1253;70433;-66
2023/10/02 02:42:51;;;;;;;19.50;5.20;;;;;;;19.19;51.38;100400.52;108256;1254;72745;-66
2023/10/02 02:45:31;;;;;;;16.70;5.30;;;;;;;19.21;51.38;100396.82;108262;1252;61789;-66
2023/10/02 02:48:07;;;;;;;12.80;5.30;;;;;;;19.22;51.45;100404.18;108224;1251;59502;-65
2023/10/02 02:50:40;;;;;;;16.50;5.60;;;;;;;19.32;51.21;100403.36;108221;1253;72987;-67
2023/10/02 02:53:23;;;;;;;18.70;5.80;;;;;;;19.26;51.31;100401.47;108179;1252;70286;-66
2023/10/02 02:56:23;;;;;;;18.00;6.00;;;;;;;19.24;51.40;100402.98;108172;1253;72404;-66
2023/10/02 02:58:55;;;;;;;24.20;5.70;;;;;;;19.14;51.62;100401.42;108155;1253;61832;-66
2023/10/02 03:01:24;;;;;;;15.00;5.00;;;;;;;19.10;51.98;100401.80;108205;1256;59679;-66
2023/10/02 03:03:55;;;;;;;21.60;5.50;;;;;;;19.24;51.57;100397.66;108184;1254;73002;-66
2023/10/02 03:06:23;;;;;;;17.20;5.20;;;;;;;19.30;51.53;100401.53;108217;1252;69970;-65
2023/10/02 03:08:51;;;;;;;14.90;4.90;;;;;;;19.29;51.63;100398.78;108184;1253;73351;-66
2023/10/02 03:11:28;;;;;;;19.60;5.80;;;;;;;19.25;51.74;100399.77;108278;1256;61686;-65
2023/10/02 03:14:12;;;;;;;15.10;5.30;;;;;;;19.12;51.98;100398.67;108282;1254;59590;-65
2023/10/02 03:16:41;;;;;;;14.50;5.80;;;;;;;19.11;51.85;100404.98;108284;1254;73294;-66
2023/10/02 03:19:13;;;;;;;15.10;5.50;;;;;;;19.11;51.84;100402.82;108272;1254;70060;-64
2023/10/02 03:21:42;;;;;;;23.10;5.50;;;;;;;19.10;51.88;100404.67;108242;1257;73021;-65
2023/10/02 03:24:12;;;;;;;15.50;5.00;;;;;;;19.20;51.80;100402.61;108227;1251;61899;-66
2023/10/02 03:26:43;;;;;;;18.00;6.40;;;;;;;19.13;51.88;100402.87;108238;1253;59940;-66
2023/10/02 03:29:11;;;;;;;12.20;4.40;;;;;;;18.97;52.28;100403.61;108114;1253;73064;-65
2023/10/02 03:31:49;;;;;;;16.30;5.50;;;;;;;18.93;52.53;100409.55;108072;1254;70349;-65
2023/10/02 03:34:28;;;;;;;13.60;5.70;;;;;;;18.84;52.79;100409.10;108105;1254;72442;-66
2023/10/02 03:37:08;;;;;;;15.00;4.70;;;;;;;18.78;53.04;100408.09;108034;1253;61650;-66
2023/10/02 03:39:59;;;;;;;21.50;5.40;;;;;;;18.94;52.66;100404.14;108117;1253;59888;-66
2023/10/02 03:42:31;;;;;;;16.30;5.40;;;;;;;19.12;52.33;100401.34;108095;1253;72644;-66
2023/10/02 03:45:02;;;;;;;14.20;5.00;;;;;;;19.15;52.26;100405.23;108191;1254;70308;-66
2023/10/02 03:47:30;;;;;;;17.10;4.70;;;;;;;19.17;52.18;100396.39;108048;1254;72694;-66
2023/10/02 03:50:01;;;;;;;17.90;4.70;;;;;;;19.17;52.10;100403.29;108112;1254;60387;-66
2023/10/02 03:52:32;;;;;;;13.20;4.90;;;;;;;19.14;52.30;100398.36;108121;1253;60210;-66
2023/10/02 03:55:17;;;;;;;13.30;4.60;;;;;;;19.07;52.30;100403.05;108084;1254;73953;-66
2023/10/02 03:57:52;;;;;;;17.10;5.30;;;;;;;19.03;52.40;100400.69;108089;1253;70448;-66
2023/10/02 04:00:22;;;;;;;16.50;5.60;;;;;;;19.22;51.98;100404.02;108094;1254;72874;-66
2023/10/02 04:02:52;;;;;;;17.30;5.50;;;;;;;19.30;51.52;100406.30;108118;1254;60752;-66
2023/10/02 04:05:31;;;;;;;10.20;4.40;;;;;;;19.35;51.39;100408.98;108206;1254;60222;-67
2023/10/02 04:08:12;;;;;;;14.80;5.70;;;;;;;19.36;51.52;100412.34;108146;1253;72632;-67
2023/10/02 04:10:56;;;;;;;13.40;5.40;;;;;;;19.43;51.27;100414.86;108092;1259;68796;-67
2023/10/02 04:13:32;;;;;;;16.40;5.30;;;;;;;19.15;52.03;100419.08;108009;1254;72228;-65
2023/10/02 04:18:58;;;;;;;19.50;6.00;;;;;;;19.29;52.02;100421.88;108048;1254;59959;-66
2023/10/02 04:21:27;;;;;;;15.70;5.30;;;;;;;19.32;51.84;100424.48;108150;1253;72614;-66
2023/10/02 04:23:56;;;;;;;25.00;6.60;;;;;;;18.92;52.96;100429.17;108093;1254;69006;-66
2023/10/02 04:26:28;;;;;;;23.00;5.90;;;;;;;18.88;53.10;100433.39;108063;1253;72293;-66
2023/10/02 04:32:19;;;;;;;18.00;5.50;;;;;;;19.19;52.67;100432.55;107907;1253;60064;-66
2023/10/02 04:34:50;;;;;;;20.90;6.50;;;;;;;19.28;52.56;100433.52;108205;1254;71708;-66
2023/10/02 04:37:20;;;;;;;17.70;5.90;;;;;;;19.45;52.23;100437.70;108193;1253;69904;-66
2023/10/02 04:40:00;;;;;;;18.20;6.40;;;;;;;19.49;52.08;100436.71;108154;1254;72737;-67
2023/10/02 04:42:57;;;;;;;14.40;5.90;;;;;;;19.68;51.71;100439.14;108182;1255;62150;-66
2023/10/02 04:45:21;;;;;;;17.50;5.60;;;;;;;20.03;51.02;100444.36;108163;1253;60312;-66
2023/10/02 04:47:49;;;;;;;15.50;6.30;;;;;;;20.13;50.77;100448.98;108270;1251;72263;-66
2023/10/02 04:52:56;;;;;;;21.10;5.80;;;;;;;19.88;51.38;100456.29;108206;1254;72664;-65
2023/10/02 04:55:41;;;;;;;16.50;5.60;;;;;;;19.47;52.40;100455.36;108124;1252;63723;-66
2023/10/02 04:58:14;;;;;;;16.70;5.70;;;;;;;19.56;52.34;100459.73;108161;1256;60358;-66
2023/10/02 05:03:30;;;;;;;16.90;5.30;;;;;;;19.74;52.63;100459.52;108250;1254;68990;-66
2023/10/02 05:05:58;;;;;;;14.90;5.20;;;;;;;19.67;52.90;100463.61;108270;1254;71382;-64
2023/10/02 05:09:12;;;;;;;15.60;5.10;;;;;;;19.94;52.26;100467.05;108228;1253;61660;-64
2023/10/02 05:14:26;;;;;;;21.70;5.70;;;;;;;19.78;52.60;100472.81;108267;1253;73211;-66
2023/10/02 05:20:07;;;;;;;18.60;5.20;;;;;;;20.45;52.20;100475.36;108105;1254;71595;-67
2023/10/02 05:22:36;;;;;;;16.30;5.30;;;;;;;20.56;51.63;100474.91;108217;1254;60817;-66
2023/10/02 05:25:07;;;;;;;16.40;5.20;;;;;;;20.54;51.28;100475.23;108247;1254;60322;-66
2023/10/02 05:27:36;;;;;;;16.20;4.90;;;;;;;20.58;51.24;100476.91;108156;1259;73857;-66
2023/10/02 05:30:12;;;;;;;16.60;5.10;;;;;;;20.71;51.01;100479.34;108145;1253;70740;-66
2023/10/02 05:32:41;;;;;;;15.10;4.30;;;;;;;20.69;51.12;100486.66;107924;1254;70308;-67
2023/10/02 05:37:42;;;;;;;12.50;5.10;;;;;;;20.71;50.98;100485.42;108192;1254;60296;-66
2023/10/02 05:48:14;;;;;;;14.90;5.00;;;;;;;21.14;50.32;100486.15;108101;1252;61691;-63
2023/10/02 05:50:48;;;;;;;15.10;5.30;;;;;;;21.32;50.02;100489.98;108106;1258;60332;-66
2023/10/02 05:53:17;;;;;;;13.70;4.80;;;;;;;21.31;50.13;100493.42;108224;1253;73908;-67
2023/10/02 05:58:35;;;;;;;14.00;5.00;;;;;;;21.20;50.33;100505.00;108075;1254;70611;-63
2023/10/02 06:01:05;;;;;;;12.90;4.90;;;;;;;21.25;50.32;100505.16;108099;1253;61398;-65
2023/10/02 06:03:36;;;;;;;18.40;5.20;;;;;;;21.58;49.63;100506.27;108053;1254;60434;-66
2023/10/02 06:06:18;;;;;;;11.50;4.00;;;;;;;21.65;49.33;100503.95;108246;1253;72618;-68
2023/10/02 06:08:49;;;;;;;13.00;4.40;;;;;;;21.75;49.25;100508.30;108016;1254;69313;-66
2023/10/02 06:11:25;;;;;;;20.40;5.20;;;;;;;21.88;48.96;100509.65;107968;1254;72093;-66
2023/10/02 06:14:10;;;;;;;11.70;4.30;;;;;;;21.98;48.65;100503.49;108111;1254;60538;-67
2023/10/02 06:16:40;;;;;;;10.80;4.30;;;;;;;22.17;48.00;100505.55;108138;1254;60366;-66
2023/10/02 06:19:16;;;;;;;11.60;5.00;;;;;;;22.53;47.46;100505.94;108222;1254;72070;-67
2023/10/02 06:24:28;;;;;;;14.30;5.00;;;;;;;22.86;46.58;100507.56;108059;1254;72464;-66
2023/10/02 06:27:04;;;;;;;14.70;5.10;;;;;;;22.90;46.37;100504.92;108072;1254;61684;-66
2023/10/02 06:29:35;;;;;;;14.50;5.10;;;;;;;22.95;46.11;100505.22;108140;1252;60399;-67
2023/10/02 06:32:11;;;;;;;;;;;;;;;22.91;46.30;100502.08;108170;1253;73949;-67
2023/10/02 06:34:39;;;;;;;15.50;6.10;;;;;;;23.12;46.25;100505.54;108108;1253;69982;-66
2023/10/02 06:37:16;;;;;;;14.30;5.40;;;;;;;23.33;45.77;100506.14;108188;1254;72665;-66
2023/10/02 06:39:46;;;;;;;15.20;6.00;;;;;;;23.67;44.97;100505.77;108140;1255;60854;-66
2023/10/02 06:42:17;;;;;;;10.80;5.20;;;;;;;23.96;44.43;100505.95;108166;1254;60325;-66
2023/10/02 06:44:54;;;;;;;14.40;5.30;;;;;;;24.69;42.95;100505.11;108191;1251;72779;-66
2023/10/02 06:47:23;;;;;;;15.00;6.10;;;;;;;24.69;42.65;100505.62;108116;1254;68688;-66
2023/10/02 06:49:51;;;;;;;12.80;4.80;;;;;;;24.87;41.75;100503.38;108199;1253;72452;-67
2023/10/02 06:52:20;;;;;;;9.70;5.40;;;;;;;24.95;41.25;100506.46;108234;1252;62330;-67
2023/10/02 06:54:56;;;;;;;10.90;4.30;;;;;;;25.05;41.06;100513.84;108333;1254;60524;-67
2023/10/02 06:57:26;;;;;;;16.10;4.90;;;;;;;25.04;41.10;100519.37;108158;1253;73820;-67
2023/10/02 06:59:54;;;;;;;16.20;5.30;;;;;;;25.34;40.91;100524.28;108167;1256;70148;-66
2023/10/02 07:02:26;;;;;;;12.30;5.10;;;;;;;25.45;40.91;100526.11;108202;1254;72817;-67
2023/10/02 07:04:55;;;;;;;11.90;4.60;;;;;;;25.70;40.02;100524.89;108298;1254;60379;-66
2023/10/02 07:07:26;;;;;;;11.30;4.90;;;;;;;25.57;40.07;100524.29;108194;1254;60359;-66
2023/10/02 07:09:55;;;;;;;14.20;4.70;;;;;;;25.33;40.42;100529.63;108104;1254;73801;-67
2023/10/02 07:12:27;;;;;;;11.90;4.20;;;;;;;25.39;40.24;100528.87;108125;1253;70042;-67
2023/10/02 07:15:11;;;;;;;11.30;4.40;;;;;;;25.35;40.47;100536.83;108160;1254;73825;-67
2023/10/02 07:17:48;;;;;;;16.00;5.00;;;;;;;25.33;40.15;100539.88;108162;1252;61748;-67
2023/10/02 07:20:19;;;;;;;13.80;4.30;;;;;;;25.23;40.53;100537.89;108216;1254;60697;-67
2023/10/02 07:22:47;;;;;;;7.20;3.50;;;;;;;25.41;40.22;100538.27;108173;1252;73187;-68
2023/10/02 07:25:24;;;;;;;11.50;4.30;;;;;;;25.50;40.13;100538.27;108199;1256;68737;-67
2023/10/02 07:27:52;;;;;;;11.30;4.60;;;;;;;25.58;39.76;100538.99;108128;1254;72618;-66
2023/10/02 07:30:26;;;;;;;15.10;4.20;;;;;;;25.42;39.63;100539.90;108083;1254;60388;-67
2023/10/02 07:33:03;;;;;;;12.80;5.20;;;;;;;25.31;39.69;100542.55;108059;1253;60396;-67
2023/10/02 07:35:33;;;;;;;12.80;4.90;;;;;;;25.40;39.42;100548.02;108033;1254;72004;-67
2023/10/02 07:38:01;;;;;;;16.30;4.70;;;;;;;25.33;39.51;100553.48;108256;1254;70538;-67
2023/10/02 07:40:46;;;;;;;17.10;5.00;;;;;;;25.24;39.71;100553.61;108159;1254;71081;-68
2023/10/02 07:43:18;;;;;;;11.70;4.00;;;;;;;25.44;39.41;100548.88;108134;1254;61920;-68
2023/10/02 07:46:01;;;;;;;11.50;4.10;;;;;;;25.61;39.30;100547.45;108206;1254;60174;-67
2023/10/02 07:48:36;;;;;;;14.00;4.50;;;;;;;25.76;38.98;100548.48;108215;1254;73816;-66
2023/10/02 07:51:06;;;;;;;13.30;4.60;;;;;;;25.89;38.68;100550.27;108167;1254;70113;-66
2023/10/02 07:53:40;;;;;;;14.30;4.50;;;;;;;25.75;38.94;100556.09;108195;1254;72663;-67
2023/10/02 07:56:12;;;;;;;11.70;4.50;;;;;;;25.82;38.92;100555.77;108138;1254;61692;-67
2023/10/02 07:58:54;;;;;;;11.50;4.30;;;;;;;25.85;38.96;100558.61;108276;1254;60433;-67
2023/10/02 08:01:27;;;;;;;11.10;4.00;;;;;;;25.75;38.74;100558.77;108198;1254;73901;-67
2023/10/02 08:03:58;;;;;;;11.10;4.20;;;;;;;25.61;38.98;100567.48;108211;1257;69803;-69
2023/10/02 08:11:52;;;;;;;11.70;4.50;;;;;;;25.23;39.32;100586.59;108231;1254;60337;-66
2023/10/02 08:17:17;;;;;;;13.60;4.10;;;;;;;25.28;39.27;100585.59;108216;1254;70160;-66
2023/10/02 08:19:56;;;;;;;11.80;3.90;;;;;;;25.31;39.18;100582.05;108255;1256;72448;-66
2023/10/02 08:22:44;;;;;;;10.60;4.40;;;;;;;25.47;39.29;100580.67;108193;1254;62710;-66
2023/10/02 08:25:16;;;;;;;11.20;3.20;;;;;;;25.58;38.86;100577.62;108216;1254;60328;-67
2023/10/02 08:27:45;;;;;;;8.80;3.40;;;;;;;26.08;38.20;100572.79;108377;1254;74270;-67
2023/10/02 08:30:27;;;;;;;12.60;3.40;;;;;;;26.57;37.38;100574.17;108231;1255;70307;-67
2023/10/02 08:33:09;;;;;;;15.80;3.80;;;;;;;27.13;36.28;100575.87;108158;1255;72505;-68
2023/10/02 08:35:58;;;;;;;7.50;3.30;;;;;;;27.75;35.38;100574.73;108187;1253;60984;-68
2023/10/02 08:38:26;;;;;;;9.00;3.40;;;;;;;27.99;34.81;100576.40;108266;1256;61076;-67
2023/10/02 08:40:57;;;;;;;9.30;3.60;;;;;;;28.02;34.93;100576.24;108137;1256;74398;-67
2023/10/02 08:43:26;;;;;;;11.20;3.70;;;;;;;28.06;34.79;100578.95;108238;1255;70080;-67
2023/10/02 08:45:54;;;;;;;13.30;3.40;;;;;;;27.82;34.76;100580.45;108230;1254;72839;-67
2023/10/02 08:48:22;;;;;;;9.40;3.60;;;;;;;27.64;34.66;100584.67;108232;1254;60004;-67
2023/10/02 08:50:50;;;;;;;11.60;3.80;;;;;;;27.42;35.11;100587.02;108227;1254;60483;-67
2023/10/02 08:53:21;;;;;;;7.30;3.10;;;;;;;27.14;35.57;100591.96;108214;1254;73998;-67
2023/10/02 08:56:21;;;;;;;13.50;4.20;;;;;;;27.07;35.57;100591.58;108228;1254;69010;-68
2023/10/02 09:01:37;;;;;;;10.90;3.70;;;;;;;26.75;36.11;100596.41;108267;1254;60398;-65
2023/10/02 09:04:22;;;;;;;10.30;3.30;;;;;;;26.57;36.33;100602.11;108322;1253;61505;-67
2023/10/02 09:06:58;;;;;;;8.90;3.10;;;;;;;26.65;36.55;100602.54;108242;1257;73260;-68
2023/10/02 09:11:59;;;;;;;15.00;3.70;;;;;;;26.68;36.51;100608.61;108221;1254;72435;-66
2023/10/02 09:19:53;;;;;;;13.70;4.40;;;;;;;26.72;36.34;100609.51;108254;1254;72592;-68
2023/10/02 09:22:23;;;;;;;11.50;4.00;;;;;;;26.86;36.06;100604.16;108198;1257;71252;-67
2023/10/02 09:25:18;;;;;;;11.60;3.80;;;;;;;27.13;35.47;100608.48;108229;1256;71705;-66
2023/10/02 09:28:13;;;;;;;10.70;4.00;;;;;;;27.55;35.12;100611.30;108182;1257;60602;-67
2023/10/02 09:30:45;;;;;;;8.60;3.70;;;;;;;28.20;34.16;100600.25;108214;1254;60318;-67
2023/10/02 09:33:26;;;;;;;9.80;3.00;;;;;;;29.06;33.13;100596.02;108231;1254;73023;-67
2023/10/02 09:36:15;;;;;;;8.90;3.50;;;;;;;29.90;31.16;100589.71;108158;1257;69498;-67
2023/10/02 09:39:31;;;;;;;13.50;4.10;;;;;;;30.31;30.69;100589.71;108148;1254;73990;-67
2023/10/02 09:42:05;;;;;;;9.80;3.10;;;;;;;31.02;29.05;100591.17;108165;1257;62768;-68
2023/10/02 09:44:40;;;;;;;9.50;3.70;;;;;;;31.38;28.48;100592.24;108090;1254;60808;-68
2023/10/02 09:47:08;;;;;;;10.20;3.80;;;;;;;31.79;27.88;100587.73;108187;1257;74300;-67
2023/10/02 09:49:39;;;;;;;8.20;3.30;;;;;;;32.15;27.25;100585.11;108188;1254;69999;-68
2023/10/02 09:52:11;;;;;;;9.20;3.70;;;;;;;32.54;26.38;100580.69;108053;1254;74531;-68
2023/10/02 09:55:04;;;;;;;8.40;3.30;;;;;;;32.80;26.35;100585.95;108218;1254;62235;-68
2023/10/02 09:57:33;;;;;;;8.40;3.60;;;;;;;33.31;25.57;100584.05;108206;1257;60331;-67
2023/10/02 10:00:34;;;;;;;11.30;3.30;;;;;;;33.50;25.29;100583.77;108202;1254;74341;-67
2023/10/02 10:03:32;;;;;;;10.80;3.30;;;;;;;33.55;24.94;100587.52;108132;1254;70714;-68
2023/10/02 10:06:06;;;;;;;7.90;3.10;;;;;;;33.70;24.51;100586.19;108127;1255;64351;-68
2023/10/02 10:11:45;;;;;;;13.00;3.80;;;;;;;33.57;24.77;100588.89;108195;1256;61717;-69
2023/10/02 10:14:37;;;;;;;8.30;3.40;;;;;;;33.48;24.56;100590.94;108128;1254;74815;-68
2023/10/02 10:17:13;;;;;;;6.90;2.80;;;;;;;33.42;24.48;100588.44;108202;1257;70720;-67
2023/10/02 10:20:18;;;;;;;8.30;3.90;;;;;;;33.33;24.77;100588.90;108234;1254;65721;-68
2023/10/02 10:22:58;;;;;;;9.20;3.80;;;;;;;33.25;24.94;100583.07;108181;1254;61033;-67
2023/10/02 10:25:35;;;;;;;10.70;3.50;;;;;;;33.21;24.76;100585.01;108114;1253;60450;-67
2023/10/02 10:28:08;;;;;;;9.90;3.60;;;;;;;33.41;25.00;100588.23;108169;1256;74307;-68
2023/10/02 10:30:45;;;;;;;9.40;3.20;;;;;;;33.46;24.87;100589.33;108174;1254;60430;-67
2023/10/02 10:33:16;;;;;;;12.30;4.00;;;;;;;33.34;24.45;100585.67;108145;1256;72086;-68
2023/10/02 10:35:51;;;;;;;9.80;3.90;;;;;;;33.37;24.13;100581.59;108070;1257;60394;-68
2023/10/02 10:38:20;;;;;;;9.70;3.40;;;;;;;33.52;24.23;100583.34;108172;1255;60556;-67
2023/10/02 10:40:54;;;;;;;7.90;3.20;;;;;;;33.68;23.97;100580.98;108190;1254;64364;-68
2023/10/02 10:43:26;;;;;;;9.30;3.70;;;;;;;33.22;24.09;100587.48;108249;1254;60533;-68
2023/10/02 10:45:54;;;;;;;13.40;4.10;;;;;;;32.99;24.66;100587.98;108094;1254;73133;-68
2023/10/02 10:48:22;;;;;;;9.20;3.80;;;;;;;33.02;24.40;100588.52;108131;1256;60321;-68
2023/10/02 10:50:59;;;;;;;10.50;3.60;;;;;;;33.12;24.47;100585.76;108050;1253;60511;-68
2023/10/02 10:53:28;;;;;;;10.30;3.80;;;;;;;33.23;24.59;100588.92;108172;1255;72573;-67
2023/10/02 10:56:03;;;;;;;7.40;3.20;;;;;;;33.30;24.40;100587.73;108189;1256;68962;-67
2023/10/02 10:58:33;;;;;;;9.00;3.40;;;;;;;33.25;24.34;100586.02;108216;1253;73164;-69
2023/10/02 11:01:05;;;;;;;9.60;3.80;;;;;;;33.29;23.95;100580.94;108256;1254;60270;-68
2023/10/02 11:03:34;;;;;;;7.80;3.70;;;;;;;33.33;24.46;100586.34;108213;1253;58840;-68
2023/10/02 11:06:03;;;;;;;8.20;3.30;;;;;;;33.16;24.42;100583.32;108054;1255;72572;-68
2023/10/02 11:08:33;;;;;;;9.40;4.10;;;;;;;33.16;24.36;100584.89;108200;1254;70265;-68
2023/10/02 11:11:09;;;;;;;9.50;3.10;;;;;;;33.26;24.53;100583.84;108226;1254;72900;-66
2023/10/02 11:14:02;;;;;;;7.30;3.30;;;;;;;33.45;24.19;100586.42;108248;1257;60303;-67
2023/10/02 11:16:32;;;;;;;9.70;4.10;;;;;;;33.26;23.81;100584.05;108194;1251;60327;-67
2023/10/02 11:22:14;;;;;;;8.30;3.60;;;;;;;33.46;23.86;100571.10;108096;1254;61524;-68
2023/10/02 11:25:04;;;;;;;7.50;4.10;;;;;;;33.63;23.53;100578.54;108132;1254;72736;-68
2023/10/02 11:27:34;;;;;;;11.10;4.70;;;;;;;33.48;23.73;100576.62;108143;1254;60315;-68
2023/10/02 11:33:27;;;;;;;15.10;5.30;;;;;;;31.53;25.75;100580.79;104768;1289;600825;-67
2023/10/02 11:35:56;;;;;;;10.90;3.80;;;;;;;32.25;24.98;100582.36;107370;1263;60602;-67
2023/10/02 11:38:23;;;;;;;8.30;4.10;;;;;;;32.05;25.25;100584.21;107391;1267;60697;-67
2023/10/02 11:40:52;;;;;;;9.50;4.10;;;;;;;31.63;25.58;100582.39;108107;1253;72271;-68
2023/10/02 11:43:19;;;;;;;8.50;4.40;;;;;;;31.17;26.00;100581.23;108256;1253;70315;-66
2023/10/02 11:45:47;;;;;;;9.30;4.40;;;;;;;31.04;25.65;100585.15;108210;1250;193950;-68
2023/10/02 11:48:14;;;;;;;11.50;4.60;;;;;;;30.66;25.98;100590.17;108229;1250;60389;-67
2023/10/02 11:50:42;;;;;;;12.70;5.10;;;;;;;30.43;26.54;100587.80;108223;1250;59983;-66
2023/10/02 11:53:09;;;;;;;9.80;5.00;;;;;;;30.44;26.82;100587.28;108208;1250;72616;-67
2023/10/02 11:55:36;;;;;;;11.10;4.50;;;;;;;30.31;27.09;100586.96;108302;1250;69359;-66
2023/10/02 11:58:04;;;;;;;10.90;4.60;;;;;;;30.05;27.22;100590.82;108246;1250;72395;-66
2023/10/02 12:00:31;;;;;;;11.00;5.40;;;;;;;29.80;27.37;100594.86;108287;1250;60671;-68
2023/10/02 12:03:00;;;;;;;15.10;5.30;;;;;;;29.48;27.97;100601.95;108186;1250;60036;-67
2023/10/02 12:05:30;;;;;;;11.30;4.90;;;;;;;29.33;27.84;100603.00;108213;1250;73848;-68
2023/10/02 12:07:59;;;;;;;12.90;5.30;;;;;;;28.70;28.84;100595.83;108198;1253;70295;-67
2023/10/02 12:10:27;;;;;;;13.00;4.60;;;;;;;28.53;29.21;100594.41;108305;1251;72580;-67
2023/10/02 12:12:54;;;;;;;10.50;4.60;;;;;;;28.30;29.62;100594.48;108338;1251;60408;-67
2023/10/02 12:15:21;;;;;;;12.40;4.90;;;;;;;28.03;30.26;100606.10;108348;1251;60780;-66
2023/10/02 12:17:48;;;;;;;12.00;4.80;;;;;;;27.98;30.27;100607.21;108318;1255;73271;-67
2023/10/02 12:20:16;;;;;;;13.20;5.20;;;;;;;27.95;30.11;100606.27;108311;1251;70554;-68
2023/10/02 12:22:47;;;;;;;12.70;5.40;;;;;;;28.07;30.27;100606.95;108256;1254;72795;-67
2023/10/02 12:25:14;;;;;;;12.90;5.10;;;;;;;28.05;30.04;100607.87;108359;1251;60218;-68
2023/10/02 12:27:41;;;;;;;9.60;5.00;;;;;;;28.24;30.01;100603.42;108323;1252;61531;-67
2023/10/02 12:30:11;;;;;;;8.90;4.30;;;;;;;28.31;30.18;100604.28;108291;1253;73229;-69
2023/10/02 12:32:40;;;;;;;12.50;4.70;;;;;;;28.14;29.88;100600.48;108188;1252;68672;-67
2023/10/02 12:35:08;;;;;;;11.50;5.30;;;;;;;27.82;29.84;100612.19;108213;1253;72719;-68
2023/10/02 12:37:35;;;;;;;14.40;5.10;;;;;;;27.80;29.75;100612.09;108216;1252;60030;-67
2023/10/02 12:40:11;;;;;;;11.50;5.70;;;;;;;27.91;30.02;100610.79;108248;1253;60103;-68
2023/10/02 12:42:38;;;;;;;9.70;4.80;;;;;;;28.25;29.28;100600.29;108148;1253;73048;-67
2023/10/02 12:45:06;;;;;;;14.80;5.00;;;;;;;28.40;29.48;100606.77;108230;1253;59539;-68